Terminal Aerodrome Forecast
Issued by NWS

Home | Current Version | Previous Version | Text Only | Print | Product List | Glossary On
Versions: 1 2 3 4 5 6 7 8 9 10 11 12 13 14 15 16 17 18 19 20 21 22 23 24 25 26 27 28
000
FTUS41 KCTP 280531
TAFJST
TAF
KJST 280531Z 2806/2906 VRB03KT P6SM BKN090
     FM281000 22003KT 4SM BR BKN090
     FM281300 23004KT P6SM BKN080
     FM281800 25007KT P6SM VCSH BKN040 BKN080
     FM290000 10006KT 5SM -SHRA BR OVC030=

USA.gov is the U.S. government's official web portal to all federal, state and local government web resources and services.